sensor_id;sensor_type;location;lat;lon;timestamp;temperature;humidity
68387;DHT22;55338;43.062;25.624;2023-04-12T00:01:06;9.40;99.90
68387;DHT22;55338;43.062;25.624;2023-04-12T00:03:32;9.40;99.90
68387;DHT22;55338;43.062;25.624;2023-04-12T00:06:00;9.50;99.90
68387;DHT22;55338;43.062;25.624;2023-04-12T00:08:28;9.50;99.90
68387;DHT22;55338;43.062;25.624;2023-04-12T00:10:58;9.50;99.90
68387;DHT22;55338;43.062;25.624;2023-04-12T00:13:25;9.40;99.90
68387;DHT22;55338;43.062;25.624;2023-04-12T00:15:51;9.40;99.90
68387;DHT22;55338;43.062;25.624;2023-04-12T00:18:16;9.40;99.90
68387;DHT22;55338;43.062;25.624;2023-04-12T00:20:42;9.40;99.90
68387;DHT22;55338;43.062;25.624;2023-04-12T00:23:08;9.40;99.90
68387;DHT22;55338;43.062;25.624;2023-04-12T00:25:35;9.40;99.90
68387;DHT22;55338;43.062;25.624;2023-04-12T00:28:03;9.50;99.90
68387;DHT22;55338;43.062;25.624;2023-04-12T00:30:29;9.50;99.90
68387;DHT22;55338;43.062;25.624;2023-04-12T00:32:55;9.40;99.90
68387;DHT22;55338;43.062;25.624;2023-04-12T00:35:21;9.40;99.90
68387;DHT22;55338;43.062;25.624;2023-04-12T00:37:47;9.40;99.90
68387;DHT22;55338;43.062;25.624;2023-04-12T00:40:13;9.40;99.90
68387;DHT22;55338;43.062;25.624;2023-04-12T00:42:38;9.40;99.90
68387;DHT22;55338;43.062;25.624;2023-04-12T00:45:05;9.40;99.90
68387;DHT22;55338;43.062;25.624;2023-04-12T00:47:33;9.40;99.90
68387;DHT22;55338;43.062;25.624;2023-04-12T00:50:00;9.40;99.90
68387;DHT22;55338;43.062;25.624;2023-04-12T00:52:26;9.40;99.90
68387;DHT22;55338;43.062;25.624;2023-04-12T00:55:08;9.40;99.90
68387;DHT22;55338;43.062;25.624;2023-04-12T00:57:37;9.40;99.90
68387;DHT22;55338;43.062;25.624;2023-04-12T01:00:08;9.30;99.90
68387;DHT22;55338;43.062;25.624;2023-04-12T01:02:40;9.30;99.90
68387;DHT22;55338;43.062;25.624;2023-04-12T01:05:07;9.30;99.90
68387;DHT22;55338;43.062;25.624;2023-04-12T01:13:04;9.30;99.90
68387;DHT22;55338;43.062;25.624;2023-04-12T01:15:36;9.30;99.90
68387;DHT22;55338;43.062;25.624;2023-04-12T01:18:15;9.30;99.90
68387;DHT22;55338;43.062;25.624;2023-04-12T01:20:46;9.20;99.90
68387;DHT22;55338;43.062;25.624;2023-04-12T01:28:52;9.20;99.90
68387;DHT22;55338;43.062;25.624;2023-04-12T01:31:19;9.20;99.90
68387;DHT22;55338;43.062;25.624;2023-04-12T01:33:46;9.20;99.90
68387;DHT22;55338;43.062;25.624;2023-04-12T01:36:17;9.20;99.90
68387;DHT22;55338;43.062;25.624;2023-04-12T01:38:43;9.20;99.90
68387;DHT22;55338;43.062;25.624;2023-04-12T01:41:09;9.20;99.90
68387;DHT22;55338;43.062;25.624;2023-04-12T01:43:43;9.20;99.90
68387;DHT22;55338;43.062;25.624;2023-04-12T01:46:18;9.20;99.90
68387;DHT22;55338;43.062;25.624;2023-04-12T01:48:54;9.20;99.90
68387;DHT22;55338;43.062;25.624;2023-04-12T01:54:32;9.20;99.90
68387;DHT22;55338;43.062;25.624;2023-04-12T01:57:01;9.20;99.90
68387;DHT22;55338;43.062;25.624;2023-04-12T01:59:33;9.20;99.90
68387;DHT22;55338;43.062;25.624;2023-04-12T02:02:01;9.20;99.90
68387;DHT22;55338;43.062;25.624;2023-04-12T02:04:29;9.20;99.90
68387;DHT22;55338;43.062;25.624;2023-04-12T02:06:56;9.10;99.90
68387;DHT22;55338;43.062;25.624;2023-04-12T02:09:22;9.20;99.90
68387;DHT22;55338;43.062;25.624;2023-04-12T02:11:48;9.20;99.90
68387;DHT22;55338;43.062;25.624;2023-04-12T02:14:15;9.10;99.90
68387;DHT22;55338;43.062;25.624;2023-04-12T02:16:41;9.10;99.90
68387;DHT22;55338;43.062;25.624;2023-04-12T02:19:09;9.10;99.90
68387;DHT22;55338;43.062;25.624;2023-04-12T02:21:42;9.10;99.90
68387;DHT22;55338;43.062;25.624;2023-04-12T02:24:09;9.10;99.90
68387;DHT22;55338;43.062;25.624;2023-04-12T02:26:36;9.10;99.90
68387;DHT22;55338;43.062;25.624;2023-04-12T02:29:03;9.10;99.90
68387;DHT22;55338;43.062;25.624;2023-04-12T02:31:32;9.10;99.90
68387;DHT22;55338;43.062;25.624;2023-04-12T02:33:59;9.10;99.90
68387;DHT22;55338;43.062;25.624;2023-04-12T02:36:25;9.10;99.90
68387;DHT22;55338;43.062;25.624;2023-04-12T02:38:51;9.10;99.90
68387;DHT22;55338;43.062;25.624;2023-04-12T02:41:17;9.10;99.90
68387;DHT22;55338;43.062;25.624;2023-04-12T02:43:43;9.10;99.90
68387;DHT22;55338;43.062;25.624;2023-04-12T02:46:09;9.10;99.90
68387;DHT22;55338;43.062;25.624;2023-04-12T02:48:36;9.10;99.90
68387;DHT22;55338;43.062;25.624;2023-04-12T02:51:02;9.10;99.90
68387;DHT22;55338;43.062;25.624;2023-04-12T02:53:27;9.10;99.90
68387;DHT22;55338;43.062;25.624;2023-04-12T02:55:54;9.10;99.90
68387;DHT22;55338;43.062;25.624;2023-04-12T02:58:21;9.10;99.90
68387;DHT22;55338;43.062;25.624;2023-04-12T03:00:48;9.00;99.90
68387;DHT22;55338;43.062;25.624;2023-04-12T03:03:15;9.00;99.90
68387;DHT22;55338;43.062;25.624;2023-04-12T03:05:42;9.00;99.90
68387;DHT22;55338;43.062;25.624;2023-04-12T03:08:12;9.10;99.90
68387;DHT22;55338;43.062;25.624;2023-04-12T03:10:38;9.10;99.90
68387;DHT22;55338;43.062;25.624;2023-04-12T03:13:04;9.10;99.90
68387;DHT22;55338;43.062;25.624;2023-04-12T03:15:30;9.20;99.90
68387;DHT22;55338;43.062;25.624;2023-04-12T03:17:56;9.10;99.90
68387;DHT22;55338;43.062;25.624;2023-04-12T03:20:22;9.10;99.90
68387;DHT22;55338;43.062;25.624;2023-04-12T03:22:50;9.10;99.90
68387;DHT22;55338;43.062;25.624;2023-04-12T03:25:16;9.10;99.90
68387;DHT22;55338;43.062;25.624;2023-04-12T03:27:43;9.10;99.90
68387;DHT22;55338;43.062;25.624;2023-04-12T03:30:09;9.10;99.90
68387;DHT22;55338;43.062;25.624;2023-04-12T03:32:41;9.00;99.90
68387;DHT22;55338;43.062;25.624;2023-04-12T03:35:10;9.00;99.90
68387;DHT22;55338;43.062;25.624;2023-04-12T03:37:40;9.00;99.90
68387;DHT22;55338;43.062;25.624;2023-04-12T03:40:06;9.00;99.90
68387;DHT22;55338;43.062;25.624;2023-04-12T03:42:32;9.00;99.90
68387;DHT22;55338;43.062;25.624;2023-04-12T03:44:58;9.10;99.90
68387;DHT22;55338;43.062;25.624;2023-04-12T03:47:23;9.00;99.90
68387;DHT22;55338;43.062;25.624;2023-04-12T03:49:49;9.00;99.90
68387;DHT22;55338;43.062;25.624;2023-04-12T03:52:15;9.10;99.90
68387;DHT22;55338;43.062;25.624;2023-04-12T03:54:41;9.00;99.90
68387;DHT22;55338;43.062;25.624;2023-04-12T03:57:06;9.10;99.90
68387;DHT22;55338;43.062;25.624;2023-04-12T03:59:32;9.00;99.90
68387;DHT22;55338;43.062;25.624;2023-04-12T04:01:58;9.00;99.90
68387;DHT22;55338;43.062;25.624;2023-04-12T04:04:26;9.10;99.90
68387;DHT22;55338;43.062;25.624;2023-04-12T04:06:52;9.00;99.90
68387;DHT22;55338;43.062;25.624;2023-04-12T04:09:19;9.00;99.90
68387;DHT22;55338;43.062;25.624;2023-04-12T04:11:45;9.10;99.90
68387;DHT22;55338;43.062;25.624;2023-04-12T04:14:12;9.00;99.90
68387;DHT22;55338;43.062;25.624;2023-04-12T04:16:37;9.00;99.90
68387;DHT22;55338;43.062;25.624;2023-04-12T04:19:03;9.10;99.90
68387;DHT22;55338;43.062;25.624;2023-04-12T04:21:29;9.10;99.90
68387;DHT22;55338;43.062;25.624;2023-04-12T04:23:58;9.10;99.90
68387;DHT22;55338;43.062;25.624;2023-04-12T04:26:26;9.10;99.90
68387;DHT22;55338;43.062;25.624;2023-04-12T04:28:58;9.10;99.90
68387;DHT22;55338;43.062;25.624;2023-04-12T04:31:28;9.20;99.90
68387;DHT22;55338;43.062;25.624;2023-04-12T04:34:02;9.20;99.90
68387;DHT22;55338;43.062;25.624;2023-04-12T04:36:32;9.20;99.90
68387;DHT22;55338;43.062;25.624;2023-04-12T04:38:58;9.30;99.90
68387;DHT22;55338;43.062;25.624;2023-04-12T04:41:24;9.30;99.90
68387;DHT22;55338;43.062;25.624;2023-04-12T04:43:50;9.30;99.90
68387;DHT22;55338;43.062;25.624;2023-04-12T04:46:16;9.30;99.90
68387;DHT22;55338;43.062;25.624;2023-04-12T04:48:46;9.40;99.90
68387;DHT22;55338;43.062;25.624;2023-04-12T04:51:13;9.50;99.90
68387;DHT22;55338;43.062;25.624;2023-04-12T04:53:39;9.40;99.90
68387;DHT22;55338;43.062;25.624;2023-04-12T04:56:05;9.50;99.90
68387;DHT22;55338;43.062;25.624;2023-04-12T04:58:31;9.50;99.90
68387;DHT22;55338;43.062;25.624;2023-04-12T05:00:57;9.50;99.90
68387;DHT22;55338;43.062;25.624;2023-04-12T05:03:24;9.50;99.90
68387;DHT22;55338;43.062;25.624;2023-04-12T05:05:56;9.50;99.90
68387;DHT22;55338;43.062;25.624;2023-04-12T05:08:22;9.50;99.90
68387;DHT22;55338;43.062;25.624;2023-04-12T05:10:51;9.50;99.90
68387;DHT22;55338;43.062;25.624;2023-04-12T05:13:18;9.50;99.90
68387;DHT22;55338;43.062;25.624;2023-04-12T05:15:44;9.50;99.90
68387;DHT22;55338;43.062;25.624;2023-04-12T05:18:10;9.50;99.90
68387;DHT22;55338;43.062;25.624;2023-04-12T05:20:38;9.60;99.90
68387;DHT22;55338;43.062;25.624;2023-04-12T05:23:04;9.60;99.90
68387;DHT22;55338;43.062;25.624;2023-04-12T05:25:30;9.60;99.90
68387;DHT22;55338;43.062;25.624;2023-04-12T05:27:57;9.70;99.90
68387;DHT22;55338;43.062;25.624;2023-04-12T05:30:23;9.60;99.90
68387;DHT22;55338;43.062;25.624;2023-04-12T05:32:49;9.60;99.90
68387;DHT22;55338;43.062;25.624;2023-04-12T05:35:15;9.70;99.90
68387;DHT22;55338;43.062;25.624;2023-04-12T05:37:40;9.70;99.90
68387;DHT22;55338;43.062;25.624;2023-04-12T05:40:07;9.70;99.90
68387;DHT22;55338;43.062;25.624;2023-04-12T05:42:34;9.70;99.90
68387;DHT22;55338;43.062;25.624;2023-04-12T05:45:04;9.70;99.90
68387;DHT22;55338;43.062;25.624;2023-04-12T05:47:31;9.70;99.90
68387;DHT22;55338;43.062;25.624;2023-04-12T05:49:57;9.80;99.90
68387;DHT22;55338;43.062;25.624;2023-04-12T05:52:23;9.80;99.90
68387;DHT22;55338;43.062;25.624;2023-04-12T05:54:48;9.90;99.90
68387;DHT22;55338;43.062;25.624;2023-04-12T05:57:14;9.90;99.90
68387;DHT22;55338;43.062;25.624;2023-04-12T05:59:42;10.00;99.90
68387;DHT22;55338;43.062;25.624;2023-04-12T06:02:09;10.00;99.90
68387;DHT22;55338;43.062;25.624;2023-04-12T06:04:41;10.00;99.90
68387;DHT22;55338;43.062;25.624;2023-04-12T06:07:08;10.10;99.90
68387;DHT22;55338;43.062;25.624;2023-04-12T06:09:34;10.20;99.90
68387;DHT22;55338;43.062;25.624;2023-04-12T06:12:00;10.30;99.90
68387;DHT22;55338;43.062;25.624;2023-04-12T06:14:27;10.40;99.90
68387;DHT22;55338;43.062;25.624;2023-04-12T06:16:54;10.40;99.90
68387;DHT22;55338;43.062;25.624;2023-04-12T06:19:20;10.50;99.90
68387;DHT22;55338;43.062;25.624;2023-04-12T06:21:46;10.50;99.90
68387;DHT22;55338;43.062;25.624;2023-04-12T06:24:12;10.60;99.90
68387;DHT22;55338;43.062;25.624;2023-04-12T06:26:38;10.70;99.90
68387;DHT22;55338;43.062;25.624;2023-04-12T06:29:04;10.70;99.90
68387;DHT22;55338;43.062;25.624;2023-04-12T06:31:30;10.80;99.90
68387;DHT22;55338;43.062;25.624;2023-04-12T06:33:56;10.90;99.90
68387;DHT22;55338;43.062;25.624;2023-04-12T06:36:21;11.00;99.90
68387;DHT22;55338;43.062;25.624;2023-04-12T06:38:47;11.10;99.90
68387;DHT22;55338;43.062;25.624;2023-04-12T06:41:15;11.20;99.90
68387;DHT22;55338;43.062;25.624;2023-04-12T06:43:40;11.20;99.90
68387;DHT22;55338;43.062;25.624;2023-04-12T06:46:06;11.30;99.90
68387;DHT22;55338;43.062;25.624;2023-04-12T06:48:33;11.40;99.90
68387;DHT22;55338;43.062;25.624;2023-04-12T06:50:59;11.40;99.90
68387;DHT22;55338;43.062;25.624;2023-04-12T06:53:25;11.50;99.90
68387;DHT22;55338;43.062;25.624;2023-04-12T06:55:51;11.60;99.90
68387;DHT22;55338;43.062;25.624;2023-04-12T06:58:18;11.70;99.90
68387;DHT22;55338;43.062;25.624;2023-04-12T07:00:44;11.70;99.90
68387;DHT22;55338;43.062;25.624;2023-04-12T07:03:10;11.80;99.90
68387;DHT22;55338;43.062;25.624;2023-04-12T07:05:39;11.90;99.90
68387;DHT22;55338;43.062;25.624;2023-04-12T07:08:06;12.00;99.90
68387;DHT22;55338;43.062;25.624;2023-04-12T07:10:32;12.10;99.90
68387;DHT22;55338;43.062;25.624;2023-04-12T07:13:00;12.20;99.90
68387;DHT22;55338;43.062;25.624;2023-04-12T07:15:28;12.20;99.90
68387;DHT22;55338;43.062;25.624;2023-04-12T07:17:54;12.20;99.90
68387;DHT22;55338;43.062;25.624;2023-04-12T07:20:20;12.20;99.90
68387;DHT22;55338;43.062;25.624;2023-04-12T07:22:46;12.30;99.90
68387;DHT22;55338;43.062;25.624;2023-04-12T07:25:11;12.50;99.90
68387;DHT22;55338;43.062;25.624;2023-04-12T07:27:37;12.50;99.90
68387;DHT22;55338;43.062;25.624;2023-04-12T07:30:03;12.70;99.90
68387;DHT22;55338;43.062;25.624;2023-04-12T07:32:29;12.80;99.90
68387;DHT22;55338;43.062;25.624;2023-04-12T07:34:55;12.90;99.90
68387;DHT22;55338;43.062;25.624;2023-04-12T07:37:20;12.90;99.90
68387;DHT22;55338;43.062;25.624;2023-04-12T07:39:46;13.10;99.90
68387;DHT22;55338;43.062;25.624;2023-04-12T07:42:12;13.20;99.90
68387;DHT22;55338;43.062;25.624;2023-04-12T07:44:38;13.30;99.90
68387;DHT22;55338;43.062;25.624;2023-04-12T07:47:03;13.40;99.90
68387;DHT22;55338;43.062;25.624;2023-04-12T07:52:00;13.60;99.90
68387;DHT22;55338;43.062;25.624;2023-04-12T07:54:27;13.50;99.90
68387;DHT22;55338;43.062;25.624;2023-04-12T07:57:00;13.40;99.90
68387;DHT22;55338;43.062;25.624;2023-04-12T07:59:28;13.40;99.90
68387;DHT22;55338;43.062;25.624;2023-04-12T08:01:59;13.50;99.90
68387;DHT22;55338;43.062;25.624;2023-04-12T08:04:25;13.60;99.90
68387;DHT22;55338;43.062;25.624;2023-04-12T08:06:53;13.70;99.90
68387;DHT22;55338;43.062;25.624;2023-04-12T08:09:19;13.60;99.90
68387;DHT22;55338;43.062;25.624;2023-04-12T08:11:45;13.70;99.90
68387;DHT22;55338;43.062;25.624;2023-04-12T08:14:11;13.80;98.60
68387;DHT22;55338;43.062;25.624;2023-04-12T08:16:37;13.80;97.70
68387;DHT22;55338;43.062;25.624;2023-04-12T08:19:03;13.80;96.90
68387;DHT22;55338;43.062;25.624;2023-04-12T08:21:29;13.70;97.20
68387;DHT22;55338;43.062;25.624;2023-04-12T08:23:55;13.70;95.20
68387;DHT22;55338;43.062;25.624;2023-04-12T08:26:21;13.70;95.90
68387;DHT22;55338;43.062;25.624;2023-04-12T08:28:47;13.90;94.80
68387;DHT22;55338;43.062;25.624;2023-04-12T08:31:14;14.30;93.80
68387;DHT22;55338;43.062;25.624;2023-04-12T08:33:40;14.40;91.40
68387;DHT22;55338;43.062;25.624;2023-04-12T08:36:06;14.40;90.30
68387;DHT22;55338;43.062;25.624;2023-04-12T08:38:32;14.40;90.10
68387;DHT22;55338;43.062;25.624;2023-04-12T08:40:58;14.40;88.80
68387;DHT22;55338;43.062;25.624;2023-04-12T08:43:27;14.70;86.80
68387;DHT22;55338;43.062;25.624;2023-04-12T08:45:55;15.30;83.70
68387;DHT22;55338;43.062;25.624;2023-04-12T08:48:22;16.30;77.50
68387;DHT22;55338;43.062;25.624;2023-04-12T08:50:50;16.10;77.50
68387;DHT22;55338;43.062;25.624;2023-04-12T08:53:16;16.30;79.50
68387;DHT22;55338;43.062;25.624;2023-04-12T08:55:43;16.70;75.80
68387;DHT22;55338;43.062;25.624;2023-04-12T08:58:14;16.60;73.70
68387;DHT22;55338;43.062;25.624;2023-04-12T09:00:43;16.30;74.70
68387;DHT22;55338;43.062;25.624;2023-04-12T09:03:10;16.00;74.40
68387;DHT22;55338;43.062;25.624;2023-04-12T09:05:36;16.10;74.90
68387;DHT22;55338;43.062;25.624;2023-04-12T09:08:03;16.10;74.70
68387;DHT22;55338;43.062;25.624;2023-04-12T09:10:33;16.60;74.20
68387;DHT22;55338;43.062;25.624;2023-04-12T09:13:01;16.90;70.80
68387;DHT22;55338;43.062;25.624;2023-04-12T09:15:26;16.70;70.10
68387;DHT22;55338;43.062;25.624;2023-04-12T09:18:09;16.90;71.00
68387;DHT22;55338;43.062;25.624;2023-04-12T09:20:36;16.80;70.20
68387;DHT22;55338;43.062;25.624;2023-04-12T09:23:19;17.10;71.10
68387;DHT22;55338;43.062;25.624;2023-04-12T09:25:46;17.00;69.70
68387;DHT22;55338;43.062;25.624;2023-04-12T09:28:19;17.20;69.10
68387;DHT22;55338;43.062;25.624;2023-04-12T09:30:45;17.10;68.40
68387;DHT22;55338;43.062;25.624;2023-04-12T09:33:23;17.30;66.90
68387;DHT22;55338;43.062;25.624;2023-04-12T09:35:59;17.80;66.30
68387;DHT22;55338;43.062;25.624;2023-04-12T09:38:26;17.80;64.60
68387;DHT22;55338;43.062;25.624;2023-04-12T09:40:51;17.40;65.80
68387;DHT22;55338;43.062;25.624;2023-04-12T09:43:19;17.60;64.80
68387;DHT22;55338;43.062;25.624;2023-04-12T09:46:13;18.00;63.00
68387;DHT22;55338;43.062;25.624;2023-04-12T09:48:40;18.50;63.30
68387;DHT22;55338;43.062;25.624;2023-04-12T09:51:06;18.90;61.90
68387;DHT22;55338;43.062;25.624;2023-04-12T09:53:34;18.40;62.10
68387;DHT22;55338;43.062;25.624;2023-04-12T09:56:03;18.40;63.20
68387;DHT22;55338;43.062;25.624;2023-04-12T09:58:31;18.40;61.30
68387;DHT22;55338;43.062;25.624;2023-04-12T10:01:00;18.70;60.90
68387;DHT22;55338;43.062;25.624;2023-04-12T10:03:27;18.20;60.50
68387;DHT22;55338;43.062;25.624;2023-04-12T10:05:54;17.90;62.20
68387;DHT22;55338;43.062;25.624;2023-04-12T10:08:23;17.80;60.90
68387;DHT22;55338;43.062;25.624;2023-04-12T10:10:52;17.50;63.20
68387;DHT22;55338;43.062;25.624;2023-04-12T10:13:18;17.40;64.20
68387;DHT22;55338;43.062;25.624;2023-04-12T10:15:46;17.30;64.20
68387;DHT22;55338;43.062;25.624;2023-04-12T10:18:15;17.70;65.20
68387;DHT22;55338;43.062;25.624;2023-04-12T10:20:44;18.40;65.80
68387;DHT22;55338;43.062;25.624;2023-04-12T10:23:10;18.80;60.90
68387;DHT22;55338;43.062;25.624;2023-04-12T10:25:38;19.20;60.20
68387;DHT22;55338;43.062;25.624;2023-04-12T10:28:18;19.40;58.00
68387;DHT22;55338;43.062;25.624;2023-04-12T10:30:46;19.10;57.50
68387;DHT22;55338;43.062;25.624;2023-04-12T10:33:18;18.60;58.20
68387;DHT22;55338;43.062;25.624;2023-04-12T10:35:56;18.50;60.00
68387;DHT22;55338;43.062;25.624;2023-04-12T10:38:23;18.30;58.00
68387;DHT22;55338;43.062;25.624;2023-04-12T10:41:11;18.20;58.80
68387;DHT22;55338;43.062;25.624;2023-04-12T10:43:38;18.00;58.90
68387;DHT22;55338;43.062;25.624;2023-04-12T10:46:04;18.00;57.60
68387;DHT22;55338;43.062;25.624;2023-04-12T10:48:36;18.30;59.80
68387;DHT22;55338;43.062;25.624;2023-04-12T10:51:22;17.90;58.40
68387;DHT22;55338;43.062;25.624;2023-04-12T10:53:53;17.40;60.20
68387;DHT22;55338;43.062;25.624;2023-04-12T10:58:58;17.00;62.00
68387;DHT22;55338;43.062;25.624;2023-04-12T11:01:24;16.90;62.80
68387;DHT22;55338;43.062;25.624;2023-04-12T11:04:18;16.50;62.30
68387;DHT22;55338;43.062;25.624;2023-04-12T11:06:49;16.50;62.80
68387;DHT22;55338;43.062;25.624;2023-04-12T11:09:19;16.40;61.90
68387;DHT22;55338;43.062;25.624;2023-04-12T11:11:46;16.40;62.40
68387;DHT22;55338;43.062;25.624;2023-04-12T11:14:14;16.20;64.10
68387;DHT22;55338;43.062;25.624;2023-04-12T11:19:45;16.20;62.20
68387;DHT22;55338;43.062;25.624;2023-04-12T11:22:16;16.30;62.20
68387;DHT22;55338;43.062;25.624;2023-04-12T11:24:51;16.40;61.50
68387;DHT22;55338;43.062;25.624;2023-04-12T11:27:19;16.40;60.90
68387;DHT22;55338;43.062;25.624;2023-04-12T11:29:54;16.80;58.80
68387;DHT22;55338;43.062;25.624;2023-04-12T11:32:22;17.70;57.60
68387;DHT22;55338;43.062;25.624;2023-04-12T11:34:49;18.10;56.60
68387;DHT22;55338;43.062;25.624;2023-04-12T11:37:17;18.20;56.00
68387;DHT22;55338;43.062;25.624;2023-04-12T11:39:44;18.40;57.00
68387;DHT22;55338;43.062;25.624;2023-04-12T11:42:14;18.80;56.00
68387;DHT22;55338;43.062;25.624;2023-04-12T11:44:41;18.60;53.30
68387;DHT22;55338;43.062;25.624;2023-04-12T11:47:21;18.20;54.40
68387;DHT22;55338;43.062;25.624;2023-04-12T11:49:55;17.30;55.70
68387;DHT22;55338;43.062;25.624;2023-04-12T11:52:27;16.90;58.20
68387;DHT22;55338;43.062;25.624;2023-04-12T11:54:53;16.50;60.20
68387;DHT22;55338;43.062;25.624;2023-04-12T11:57:23;16.40;61.80
68387;DHT22;55338;43.062;25.624;2023-04-12T11:59:49;16.20;61.20
68387;DHT22;55338;43.062;25.624;2023-04-12T12:02:16;16.00;61.40
68387;DHT22;55338;43.062;25.624;2023-04-12T12:04:46;15.90;62.30
68387;DHT22;55338;43.062;25.624;2023-04-12T12:07:14;15.70;62.50
68387;DHT22;55338;43.062;25.624;2023-04-12T12:09:41;15.70;64.10
68387;DHT22;55338;43.062;25.624;2023-04-12T12:12:11;15.80;63.50
68387;DHT22;55338;43.062;25.624;2023-04-12T12:14:37;15.90;64.30
68387;DHT22;55338;43.062;25.624;2023-04-12T12:17:11;15.80;63.00
68387;DHT22;55338;43.062;25.624;2023-04-12T12:19:44;16.00;62.50
68387;DHT22;55338;43.062;25.624;2023-04-12T12:22:16;16.10;62.50
68387;DHT22;55338;43.062;25.624;2023-04-12T12:24:50;16.10;62.70
68387;DHT22;55338;43.062;25.624;2023-04-12T12:27:21;16.20;62.50
68387;DHT22;55338;43.062;25.624;2023-04-12T12:29:53;16.40;62.10
68387;DHT22;55338;43.062;25.624;2023-04-12T12:32:20;16.50;61.70
68387;DHT22;55338;43.062;25.624;2023-04-12T12:34:55;16.70;61.50
68387;DHT22;55338;43.062;25.624;2023-04-12T12:37:26;17.20;61.70
68387;DHT22;55338;43.062;25.624;2023-04-12T12:40:09;17.50;57.70
68387;DHT22;55338;43.062;25.624;2023-04-12T12:42:54;17.90;57.00
68387;DHT22;55338;43.062;25.624;2023-04-12T12:45:25;17.50;56.10
68387;DHT22;55338;43.062;25.624;2023-04-12T12:47:58;17.20;58.10
68387;DHT22;55338;43.062;25.624;2023-04-12T12:50:26;17.30;58.70
68387;DHT22;55338;43.062;25.624;2023-04-12T12:52:53;17.40;59.70
68387;DHT22;55338;43.062;25.624;2023-04-12T12:55:20;17.10;58.40
68387;DHT22;55338;43.062;25.624;2023-04-12T12:57:50;16.80;59.00
68387;DHT22;55338;43.062;25.624;2023-04-12T13:00:20;16.40;59.30
68387;DHT22;55338;43.062;25.624;2023-04-12T13:02:51;16.30;60.30
68387;DHT22;55338;43.062;25.624;2023-04-12T13:05:18;16.00;59.60
68387;DHT22;55338;43.062;25.624;2023-04-12T13:07:45;15.80;60.00
68387;DHT22;55338;43.062;25.624;2023-04-12T13:10:11;15.70;60.50
68387;DHT22;55338;43.062;25.624;2023-04-12T13:12:37;15.50;61.60
68387;DHT22;55338;43.062;25.624;2023-04-12T13:15:03;15.40;61.60
68387;DHT22;55338;43.062;25.624;2023-04-12T13:17:30;15.30;63.30
68387;DHT22;55338;43.062;25.624;2023-04-12T13:19:56;15.30;63.00
68387;DHT22;55338;43.062;25.624;2023-04-12T13:22:22;15.20;62.30
68387;DHT22;55338;43.062;25.624;2023-04-12T13:24:49;15.30;63.70
68387;DHT22;55338;43.062;25.624;2023-04-12T13:27:15;15.30;64.20
68387;DHT22;55338;43.062;25.624;2023-04-12T13:29:42;15.30;63.50
68387;DHT22;55338;43.062;25.624;2023-04-12T13:32:08;15.30;63.70
68387;DHT22;55338;43.062;25.624;2023-04-12T13:34:34;15.20;63.50
68387;DHT22;55338;43.062;25.624;2023-04-12T13:36:59;15.20;64.30
68387;DHT22;55338;43.062;25.624;2023-04-12T13:39:25;15.30;64.10
68387;DHT22;55338;43.062;25.624;2023-04-12T13:41:51;15.20;63.70
68387;DHT22;55338;43.062;25.624;2023-04-12T13:44:17;15.40;64.80
68387;DHT22;55338;43.062;25.624;2023-04-12T13:46:43;15.30;63.70
68387;DHT22;55338;43.062;25.624;2023-04-12T13:49:09;15.40;64.70
68387;DHT22;55338;43.062;25.624;2023-04-12T13:51:35;15.40;65.00
68387;DHT22;55338;43.062;25.624;2023-04-12T13:54:01;15.30;65.50
68387;DHT22;55338;43.062;25.624;2023-04-12T13:56:27;15.30;64.30
68387;DHT22;55338;43.062;25.624;2023-04-12T13:58:52;15.30;64.90
68387;DHT22;55338;43.062;25.624;2023-04-12T14:01:18;15.40;64.50
68387;DHT22;55338;43.062;25.624;2023-04-12T14:03:47;15.10;65.00
68387;DHT22;55338;43.062;25.624;2023-04-12T14:06:12;15.30;64.90
68387;DHT22;55338;43.062;25.624;2023-04-12T14:08:38;15.20;65.60
68387;DHT22;55338;43.062;25.624;2023-04-12T14:11:04;15.20;64.50
68387;DHT22;55338;43.062;25.624;2023-04-12T14:13:31;15.10;64.30
68387;DHT22;55338;43.062;25.624;2023-04-12T14:15:57;15.10;64.10
68387;DHT22;55338;43.062;25.624;2023-04-12T14:18:23;15.20;66.20
68387;DHT22;55338;43.062;25.624;2023-04-12T14:20:49;15.30;65.50
68387;DHT22;55338;43.062;25.624;2023-04-12T14:23:17;15.30;64.40
68387;DHT22;55338;43.062;25.624;2023-04-12T14:25:43;15.20;62.90
68387;DHT22;55338;43.062;25.624;2023-04-12T14:28:09;15.20;63.80
68387;DHT22;55338;43.062;25.624;2023-04-12T14:30:35;15.20;63.40
68387;DHT22;55338;43.062;25.624;2023-04-12T14:33:00;15.10;62.10
68387;DHT22;55338;43.062;25.624;2023-04-12T14:35:26;15.10;62.40
68387;DHT22;55338;43.062;25.624;2023-04-12T14:37:52;15.00;62.00
68387;DHT22;55338;43.062;25.624;2023-04-12T14:40:18;15.00;62.20
68387;DHT22;55338;43.062;25.624;2023-04-12T14:42:44;15.00;63.70
68387;DHT22;55338;43.062;25.624;2023-04-12T14:45:10;15.00;62.80
68387;DHT22;55338;43.062;25.624;2023-04-12T14:47:36;15.00;63.40
68387;DHT22;55338;43.062;25.624;2023-04-12T14:50:02;14.90;63.20
68387;DHT22;55338;43.062;25.624;2023-04-12T14:52:28;14.90;64.80
68387;DHT22;55338;43.062;25.624;2023-04-12T14:54:54;14.90;65.40
68387;DHT22;55338;43.062;25.624;2023-04-12T14:57:20;14.90;67.40
68387;DHT22;55338;43.062;25.624;2023-04-12T14:59:46;14.90;66.00
68387;DHT22;55338;43.062;25.624;2023-04-12T15:02:12;14.80;65.90
68387;DHT22;55338;43.062;25.624;2023-04-12T15:04:37;14.80;66.10
68387;DHT22;55338;43.062;25.624;2023-04-12T15:07:03;14.70;67.10
68387;DHT22;55338;43.062;25.624;2023-04-12T15:09:29;14.70;67.00
68387;DHT22;55338;43.062;25.624;2023-04-12T15:11:55;14.80;69.10
68387;DHT22;55338;43.062;25.624;2023-04-12T15:14:27;14.80;69.60
68387;DHT22;55338;43.062;25.624;2023-04-12T15:16:54;14.80;67.40
68387;DHT22;55338;43.062;25.624;2023-04-12T15:19:20;14.70;65.90
68387;DHT22;55338;43.062;25.624;2023-04-12T15:21:50;14.70;65.60
68387;DHT22;55338;43.062;25.624;2023-04-12T15:24:17;14.80;65.10
68387;DHT22;55338;43.062;25.624;2023-04-12T15:26:42;14.90;63.60
68387;DHT22;55338;43.062;25.624;2023-04-12T15:29:09;14.90;62.90
68387;DHT22;55338;43.062;25.624;2023-04-12T15:31:35;15.00;62.20
68387;DHT22;55338;43.062;25.624;2023-04-12T15:34:00;15.00;63.70
68387;DHT22;55338;43.062;25.624;2023-04-12T15:36:26;15.00;63.20
68387;DHT22;55338;43.062;25.624;2023-04-12T15:38:58;15.10;62.80
68387;DHT22;55338;43.062;25.624;2023-04-12T15:41:25;15.10;63.50
68387;DHT22;55338;43.062;25.624;2023-04-12T15:43:50;15.10;63.30
68387;DHT22;55338;43.062;25.624;2023-04-12T15:46:16;15.10;64.00
68387;DHT22;55338;43.062;25.624;2023-04-12T15:48:42;15.10;62.90